Time;durP1;ratioP1;P1;durP2;ratioP2;P2;SDS_P1;SDS_P2;PMS_P1;PMS_P2;Temp;Humidity;BMP_temperature;BMP_pressure;BME280_temperature;BME280_humidity;BME280_pressure;Samples;Min_cycle;Max_cycle;Signal;HPM_P1;HPM_P2
2022/07/27 00:02:13;;;;;;;3.80;1.90;;;;;;;;;;5095492;28;20522;-64
2022/07/27 00:04:41;;;;;;;2.50;1.80;;;;;;;;;;5095736;28;20879;-63
2022/07/27 00:07:09;;;;;;;2.00;1.80;;;;;;;;;;5095716;28;20503;-63
2022/07/27 00:09:36;;;;;;;2.63;1.83;;;;;;;;;;5095679;28;20469;-64
2022/07/27 00:12:04;;;;;;;2.20;1.60;;;;;;;;;;5095296;28;20539;-64
2022/07/27 00:14:31;;;;;;;2.90;1.70;;;;;;;;;;5095508;28;20432;-65
2022/07/27 00:16:58;;;;;;;7.77;2.53;;;;;;;;;;5094910;28;20479;-65
2022/07/27 00:19:25;;;;;;;3.93;2.00;;;;;;;;;;5095093;28;21006;-64
2022/07/27 00:21:53;;;;;;;3.03;1.77;;;;;;;;;;5095000;28;20482;-64
2022/07/27 00:24:21;;;;;;;2.60;1.77;;;;;;;;;;5095435;28;20951;-64
2022/07/27 00:26:49;;;;;;;3.17;1.70;;;;;;;;;;5094969;28;20539;-64
2022/07/27 00:29:16;;;;;;;1.73;1.63;;;;;;;;;;5094822;28;20440;-64
2022/07/27 00:31:43;;;;;;;6.13;2.27;;;;;;;;;;5094448;28;20530;-64
2022/07/27 00:34:10;;;;;;;4.30;1.70;;;;;;;;;;5095415;28;20477;-64
2022/07/27 00:36:37;;;;;;;2.10;1.90;;;;;;;;;;5095145;28;20443;-64
2022/07/27 00:39:05;;;;;;;13.77;3.93;;;;;;;;;;5094998;28;20446;-64
2022/07/27 00:41:33;;;;;;;3.10;1.70;;;;;;;;;;5094977;28;20559;-64
2022/07/27 00:44:04;;;;;;;3.87;2.17;;;;;;;;;;5094888;28;20440;-64
2022/07/27 00:46:31;;;;;;;4.23;1.77;;;;;;;;;;5095463;28;20429;-64
2022/07/27 00:48:58;;;;;;;3.40;2.00;;;;;;;;;;5094742;28;20451;-64
2022/07/27 00:51:26;;;;;;;2.93;2.10;;;;;;;;;;5094478;28;20499;-64
2022/07/27 00:53:54;;;;;;;4.00;2.13;;;;;;;;;;5094911;28;20847;-64
2022/07/27 00:56:21;;;;;;;2.23;2.03;;;;;;;;;;5094725;28;20452;-64
2022/07/27 00:58:51;;;;;;;3.00;2.10;;;;;;;;;;5094328;28;20543;-64
2022/07/27 01:01:18;;;;;;;3.20;1.70;;;;;;;;;;5094584;28;20477;-64
2022/07/27 01:03:46;;;;;;;4.73;1.90;;;;;;;;;;5094740;28;20547;-64
2022/07/27 01:06:14;;;;;;;5.93;2.07;;;;;;;;;;5094690;28;20524;-64
2022/07/27 01:08:41;;;;;;;2.60;1.97;;;;;;;;;;5094080;28;20906;-64
2022/07/27 01:11:09;;;;;;;5.97;1.60;;;;;;;;;;5094843;28;20460;-64
2022/07/27 01:13:36;;;;;;;2.63;1.73;;;;;;;;;;5094336;28;20445;-64
2022/07/27 01:16:06;;;;;;;4.40;2.10;;;;;;;;;;5094705;28;20526;-64
2022/07/27 01:18:35;;;;;;;2.10;1.90;;;;;;;;;;5094017;28;20432;-65
2022/07/27 01:21:03;;;;;;;2.67;2.00;;;;;;;;;;5094410;28;20477;-64
2022/07/27 01:23:32;;;;;;;2.90;1.93;;;;;;;;;;5094478;28;20460;-64
2022/07/27 01:25:59;;;;;;;7.00;2.23;;;;;;;;;;5094158;28;20498;-65
2022/07/27 01:28:26;;;;;;;2.93;1.93;;;;;;;;;;5093881;28;20446;-64
2022/07/27 01:30:54;;;;;;;3.73;2.20;;;;;;;;;;5093763;28;20454;-64
2022/07/27 01:33:24;;;;;;;6.97;2.90;;;;;;;;;;5094632;28;20444;-64
2022/07/27 01:35:53;;;;;;;4.60;2.27;;;;;;;;;;5094077;28;20771;-64
2022/07/27 01:38:20;;;;;;;4.03;1.93;;;;;;;;;;5093978;28;20527;-63
2022/07/27 01:40:49;;;;;;;4.03;2.20;;;;;;;;;;5093829;28;20484;-63
2022/07/27 01:43:16;;;;;;;8.13;2.37;;;;;;;;;;5093990;28;20437;-64
2022/07/27 01:45:43;;;;;;;2.60;2.10;;;;;;;;;;5093540;28;20523;-64
2022/07/27 01:48:10;;;;;;;4.37;2.10;;;;;;;;;;5093906;28;20468;-64
2022/07/27 01:50:38;;;;;;;2.33;1.80;;;;;;;;;;5093821;28;20787;-64
2022/07/27 01:53:05;;;;;;;4.03;2.57;;;;;;;;;;5093551;28;20866;-64
2022/07/27 01:55:32;;;;;;;7.07;2.33;;;;;;;;;;5093244;28;20462;-63
2022/07/27 01:58:02;;;;;;;5.27;2.40;;;;;;;;;;5093763;28;20441;-64
2022/07/27 02:00:30;;;;;;;2.30;1.87;;;;;;;;;;5093904;28;20435;-63
2022/07/27 02:02:57;;;;;;;3.77;2.43;;;;;;;;;;5093779;28;20466;-64
2022/07/27 02:05:25;;;;;;;8.90;2.63;;;;;;;;;;5093583;28;20528;-64
2022/07/27 02:07:52;;;;;;;5.60;2.13;;;;;;;;;;5093357;28;20475;-64
2022/07/27 02:10:19;;;;;;;6.03;2.60;;;;;;;;;;5093535;28;20523;-64
2022/07/27 02:12:45;;;;;;;2.77;2.53;;;;;;;;;;5093229;28;20444;-64
2022/07/27 02:15:15;;;;;;;3.90;2.67;;;;;;;;;;5093092;28;20444;-64
2022/07/27 02:17:43;;;;;;;5.33;2.70;;;;;;;;;;5093736;28;20501;-64
2022/07/27 02:20:11;;;;;;;4.43;2.47;;;;;;;;;;5093685;28;20531;-64
2022/07/27 02:22:38;;;;;;;5.07;2.47;;;;;;;;;;5094029;28;20477;-64
2022/07/27 02:25:06;;;;;;;3.97;2.67;;;;;;;;;;5093487;28;20454;-64
2022/07/27 02:27:33;;;;;;;4.67;2.90;;;;;;;;;;5093135;28;20449;-64
2022/07/27 02:30:00;;;;;;;10.50;3.43;;;;;;;;;;5093335;28;20449;-63
2022/07/27 02:32:29;;;;;;;11.30;2.90;;;;;;;;;;5094224;28;20448;-64
2022/07/27 02:34:56;;;;;;;3.73;3.00;;;;;;;;;;5093738;28;20531;-64
2022/07/27 02:37:23;;;;;;;3.47;2.70;;;;;;;;;;5093691;28;20446;-64
2022/07/27 02:39:51;;;;;;;3.83;2.53;;;;;;;;;;5092961;28;21020;-64
2022/07/27 02:42:19;;;;;;;6.50;2.83;;;;;;;;;;5093255;28;20486;-64
2022/07/27 02:44:46;;;;;;;3.40;2.57;;;;;;;;;;5092907;28;20444;-64
2022/07/27 02:47:13;;;;;;;7.87;2.60;;;;;;;;;;5093270;28;20518;-65
2022/07/27 02:49:42;;;;;;;3.40;2.50;;;;;;;;;;5093794;28;20531;-64
2022/07/27 02:52:09;;;;;;;7.77;3.40;;;;;;;;;;5093212;28;20863;-64
2022/07/27 02:54:36;;;;;;;4.83;2.80;;;;;;;;;;5096079;28;20491;-65
2022/07/27 02:57:03;;;;;;;4.10;2.57;;;;;;;;;;5097016;28;20446;-64
2022/07/27 02:59:31;;;;;;;3.00;2.27;;;;;;;;;;5096738;28;20500;-63
2022/07/27 03:01:58;;;;;;;4.57;2.70;;;;;;;;;;5096495;28;20566;-64
2022/07/27 03:04:25;;;;;;;6.03;2.90;;;;;;;;;;5097004;28;20852;-64
2022/07/27 03:06:54;;;;;;;5.77;3.13;;;;;;;;;;5096896;28;20530;-64
2022/07/27 03:09:21;;;;;;;2.90;2.70;;;;;;;;;;5097077;28;20496;-64
2022/07/27 03:11:48;;;;;;;5.83;3.23;;;;;;;;;;5096764;28;20459;-64
2022/07/27 03:14:16;;;;;;;8.17;3.17;;;;;;;;;;5096431;28;20527;-64
2022/07/27 03:16:43;;;;;;;5.30;3.37;;;;;;;;;;5096309;28;20477;-64
2022/07/27 03:19:10;;;;;;;5.43;3.33;;;;;;;;;;5096695;28;20442;-64
2022/07/27 03:21:38;;;;;;;4.87;2.93;;;;;;;;;;5096576;28;20481;-64
2022/07/27 03:24:07;;;;;;;5.47;3.20;;;;;;;;;;5096641;28;20444;-64
2022/07/27 03:26:34;;;;;;;5.17;3.53;;;;;;;;;;5096135;28;20473;-64
2022/07/27 03:29:01;;;;;;;4.80;3.33;;;;;;;;;;5096505;28;20546;-65
2022/07/27 03:31:28;;;;;;;6.17;3.43;;;;;;;;;;5096390;28;20538;-64
2022/07/27 03:33:56;;;;;;;5.50;3.10;;;;;;;;;;5096501;28;20877;-64
2022/07/27 03:36:23;;;;;;;4.97;3.60;;;;;;;;;;5096018;28;20527;-63
2022/07/27 03:38:50;;;;;;;4.20;3.30;;;;;;;;;;5095968;28;21100;-64
2022/07/27 03:41:18;;;;;;;4.20;3.20;;;;;;;;;;5096140;28;20823;-63
2022/07/27 03:43:46;;;;;;;6.40;3.23;;;;;;;;;;5096213;28;20529;-64
2022/07/27 03:46:13;;;;;;;8.90;3.97;;;;;;;;;;5096465;28;20844;-64
2022/07/27 03:48:40;;;;;;;8.53;3.30;;;;;;;;;;5096425;28;20526;-64
2022/07/27 03:51:07;;;;;;;8.00;3.90;;;;;;;;;;5095943;28;20448;-64
2022/07/27 03:53:34;;;;;;;5.57;4.00;;;;;;;;;;5096056;28;20538;-64
2022/07/27 03:56:02;;;;;;;8.50;4.07;;;;;;;;;;5095567;28;20444;-64
2022/07/27 03:58:30;;;;;;;4.33;3.90;;;;;;;;;;5094705;28;20538;-64
2022/07/27 04:00:57;;;;;;;4.77;3.50;;;;;;;;;;5094965;28;21008;-64
2022/07/27 04:03:25;;;;;;;3.60;3.30;;;;;;;;;;5095247;28;20447;-64
2022/07/27 04:05:52;;;;;;;4.00;3.63;;;;;;;;;;5094808;28;21032;-64
2022/07/27 04:08:20;;;;;;;7.93;4.27;;;;;;;;;;5094865;28;20929;-65
2022/07/27 04:10:47;;;;;;;5.07;3.30;;;;;;;;;;5095385;28;20435;-64
2022/07/27 04:13:14;;;;;;;7.70;4.30;;;;;;;;;;5095446;28;20444;-65
2022/07/27 04:15:43;;;;;;;5.80;4.00;;;;;;;;;;5094278;28;20904;-64
2022/07/27 04:18:10;;;;;;;4.80;3.47;;;;;;;;;;5095497;28;20447;-64
2022/07/27 04:20:37;;;;;;;7.20;4.13;;;;;;;;;;5095087;28;20534;-66
2022/07/27 04:23:04;;;;;;;5.50;3.63;;;;;;;;;;5095318;28;20478;-64
2022/07/27 04:25:32;;;;;;;6.87;4.63;;;;;;;;;;5095478;28;20539;-64
2022/07/27 04:27:59;;;;;;;6.00;3.70;;;;;;;;;;5095269;28;20437;-65
2022/07/27 04:30:26;;;;;;;6.07;3.70;;;;;;;;;;5095198;28;20440;-64
2022/07/27 04:32:55;;;;;;;3.97;3.50;;;;;;;;;;5094834;28;20538;-64
2022/07/27 04:35:22;;;;;;;7.73;3.70;;;;;;;;;;5094552;28;21008;-64
2022/07/27 04:37:49;;;;;;;5.73;4.20;;;;;;;;;;5094675;28;20452;-65
2022/07/27 04:40:16;;;;;;;11.13;3.40;;;;;;;;;;5095033;28;20441;-65
2022/07/27 04:42:43;;;;;;;5.60;2.80;;;;;;;;;;5094573;28;20937;-65
2022/07/27 04:45:11;;;;;;;5.57;4.30;;;;;;;;;;5095386;28;20447;-65
2022/07/27 04:47:38;;;;;;;4.00;3.07;;;;;;;;;;5094559;28;20942;-64
2022/07/27 04:50:08;;;;;;;10.57;4.97;;;;;;;;;;5094602;28;20438;-64
2022/07/27 04:52:36;;;;;;;6.00;3.40;;;;;;;;;;5094742;28;20440;-64
2022/07/27 04:55:03;;;;;;;3.93;3.07;;;;;;;;;;5094558;28;20439;-64
2022/07/27 04:57:30;;;;;;;5.20;3.50;;;;;;;;;;5094191;28;20507;-65
2022/07/27 04:59:57;;;;;;;4.97;3.57;;;;;;;;;;5094904;28;20804;-64
2022/07/27 05:02:27;;;;;;;6.17;3.50;;;;;;;;;;5094055;28;20502;-65
2022/07/27 05:04:54;;;;;;;5.77;3.50;;;;;;;;;;5094581;28;20498;-64
2022/07/27 05:07:23;;;;;;;4.30;3.67;;;;;;;;;;5094772;28;20445;-64
2022/07/27 05:09:50;;;;;;;8.03;3.27;;;;;;;;;;5094502;28;20454;-64
2022/07/27 05:12:17;;;;;;;4.20;3.27;;;;;;;;;;5092704;28;20467;-65
2022/07/27 05:14:44;;;;;;;7.00;3.53;;;;;;;;;;5092230;28;20441;-65
2022/07/27 05:17:11;;;;;;;8.87;3.20;;;;;;;;;;5092489;28;20468;-67
2022/07/27 05:19:39;;;;;;;7.60;4.10;;;;;;;;;;5094199;28;20797;-66
2022/07/27 05:22:06;;;;;;;4.53;3.10;;;;;;;;;;5093485;28;20522;-64
2022/07/27 05:24:34;;;;;;;4.83;3.70;;;;;;;;;;5093932;28;20449;-65
2022/07/27 05:27:02;;;;;;;9.93;3.30;;;;;;;;;;5094355;28;20558;-65
2022/07/27 05:29:29;;;;;;;9.80;3.80;;;;;;;;;;5093875;28;20437;-65
2022/07/27 05:31:56;;;;;;;9.33;3.27;;;;;;;;;;5094248;28;20437;-65
2022/07/27 05:34:23;;;;;;;6.33;3.80;;;;;;;;;;5094442;28;20440;-65
2022/07/27 05:36:50;;;;;;;13.20;4.23;;;;;;;;;;5093666;28;20941;-65
2022/07/27 05:39:18;;;;;;;4.57;3.53;;;;;;;;;;5094269;28;20534;-65
2022/07/27 05:41:46;;;;;;;6.13;5.07;;;;;;;;;;5093613;28;20954;-65
2022/07/27 05:44:14;;;;;;;6.40;3.27;;;;;;;;;;5094306;28;20520;-64
2022/07/27 05:46:41;;;;;;;8.53;3.97;;;;;;;;;;5093487;28;20448;-65
2022/07/27 05:49:08;;;;;;;5.97;3.47;;;;;;;;;;5093813;28;20479;-64
2022/07/27 05:51:37;;;;;;;6.50;3.30;;;;;;;;;;5094107;28;20874;-65
2022/07/27 05:54:04;;;;;;;3.77;3.07;;;;;;;;;;5093534;28;20795;-64
2022/07/27 05:56:31;;;;;;;4.03;2.83;;;;;;;;;;5093812;28;20441;-65
2022/07/27 05:59:00;;;;;;;6.00;2.87;;;;;;;;;;5093306;28;20445;-65
2022/07/27 06:01:27;;;;;;;5.13;2.93;;;;;;;;;;5093369;28;20445;-65
2022/07/27 06:03:54;;;;;;;6.30;2.90;;;;;;;;;;5093485;28;20480;-64
2022/07/27 06:09:06;;;;;;;5.13;2.87;;;;;;;;;;5093486;28;20455;-65
2022/07/27 06:11:34;;;;;;;5.93;2.97;;;;;;;;;;5093229;28;20477;-64
2022/07/27 06:14:02;;;;;;;7.80;2.80;;;;;;;;;;5093601;28;20440;-65
2022/07/27 06:16:29;;;;;;;6.60;3.17;;;;;;;;;;5093152;28;20573;-65
2022/07/27 06:18:57;;;;;;;4.10;2.73;;;;;;;;;;5093646;28;20523;-65
2022/07/27 06:21:25;;;;;;;4.10;2.20;;;;;;;;;;5093171;28;20522;-65
2022/07/27 06:23:52;;;;;;;2.80;2.17;;;;;;;;;;5093063;28;20491;-65
2022/07/27 06:26:20;;;;;;;8.03;2.57;;;;;;;;;;5093245;28;20814;-65
2022/07/27 06:28:48;;;;;;;3.83;2.50;;;;;;;;;;5096343;28;20571;-65
2022/07/27 06:31:16;;;;;;;3.10;2.10;;;;;;;;;;5097793;28;20524;-64
2022/07/27 06:33:44;;;;;;;2.10;2.00;;;;;;;;;;5097464;28;20550;-65
2022/07/27 06:36:11;;;;;;;3.30;1.80;;;;;;;;;;5097422;28;21019;-64
2022/07/27 06:38:38;;;;;;;6.20;2.77;;;;;;;;;;5097291;28;20532;-65
2022/07/27 06:41:05;;;;;;;3.60;2.30;;;;;;;;;;5097352;28;20785;-64
2022/07/27 06:43:33;;;;;;;3.40;1.80;;;;;;;;;;5097257;28;20568;-65
2022/07/27 06:46:02;;;;;;;4.27;2.10;;;;;;;;;;5097792;28;20489;-64
2022/07/27 06:48:30;;;;;;;4.60;2.20;;;;;;;;;;5096777;28;20494;-65
2022/07/27 06:50:57;;;;;;;6.40;2.67;;;;;;;;;;5097275;28;20531;-65
2022/07/27 06:53:25;;;;;;;3.27;2.03;;;;;;;;;;5096752;28;20473;-67
2022/07/27 06:55:52;;;;;;;8.67;2.10;;;;;;;;;;5097145;28;20439;-65
2022/07/27 06:58:19;;;;;;;6.00;2.07;;;;;;;;;;5096933;28;21016;-66
2022/07/27 07:00:47;;;;;;;4.73;2.27;;;;;;;;;;5097069;28;20518;-64
2022/07/27 07:03:14;;;;;;;4.00;2.00;;;;;;;;;;5096844;28;20482;-64
2022/07/27 07:05:44;;;;;;;6.40;1.77;;;;;;;;;;5097019;28;20440;-64
2022/07/27 07:08:13;;;;;;;5.07;1.67;;;;;;;;;;5097333;28;20434;-65
2022/07/27 07:10:41;;;;;;;8.13;2.07;;;;;;;;;;5096538;28;20454;-64
2022/07/27 07:13:08;;;;;;;4.20;1.63;;;;;;;;;;5097102;28;20497;-65
2022/07/27 07:15:36;;;;;;;7.80;1.50;;;;;;;;;;5096151;28;20475;-64
2022/07/27 07:18:04;;;;;;;3.27;1.97;;;;;;;;;;5096414;28;20487;-64
2022/07/27 07:20:32;;;;;;;3.63;2.00;;;;;;;;;;5096575;28;20447;-64
2022/07/27 07:23:01;;;;;;;4.80;2.17;;;;;;;;;;5096196;28;20525;-65
2022/07/27 07:25:28;;;;;;;3.70;1.90;;;;;;;;;;5096046;28;20444;-64
2022/07/27 07:27:56;;;;;;;5.97;2.17;;;;;;;;;;5096451;28;20526;-64
2022/07/27 07:30:23;;;;;;;3.77;1.63;;;;;;;;;;5096089;28;20935;-64
2022/07/27 07:32:51;;;;;;;3.10;1.97;;;;;;;;;;5096430;28;20450;-64
2022/07/27 07:35:18;;;;;;;7.87;1.73;;;;;;;;;;5096253;28;20786;-65
2022/07/27 07:37:45;;;;;;;6.00;1.80;;;;;;;;;;5096601;28;20435;-64
2022/07/27 07:40:14;;;;;;;4.70;2.00;;;;;;;;;;5095572;28;20440;-65
2022/07/27 07:42:51;;;;;;;4.50;1.77;;;;;;;;;;5096103;28;20903;-65
2022/07/27 07:45:19;;;;;;;4.67;2.20;;;;;;;;;;5096070;28;20446;-65
2022/07/27 07:47:46;;;;;;;2.77;1.80;;;;;;;;;;5095845;28;20446;-65
2022/07/27 07:50:13;;;;;;;4.53;1.93;;;;;;;;;;5096066;28;20807;-65
2022/07/27 07:52:41;;;;;;;2.80;1.90;;;;;;;;;;5096085;28;20984;-65
2022/07/27 07:55:09;;;;;;;3.63;1.40;;;;;;;;;;5096393;28;20538;-65
2022/07/27 07:57:37;;;;;;;7.97;3.80;;;;;;;;;;5095625;28;20529;-64
2022/07/27 08:00:05;;;;;;;4.00;1.67;;;;;;;;;;5095534;28;20442;-65
2022/07/27 08:02:32;;;;;;;6.20;2.10;;;;;;;;;;5095897;28;20444;-65
2022/07/27 08:05:00;;;;;;;2.67;1.80;;;;;;;;;;5095532;28;20447;-64
2022/07/27 08:07:27;;;;;;;2.10;1.83;;;;;;;;;;5095780;28;20529;-64
2022/07/27 08:09:54;;;;;;;5.63;1.90;;;;;;;;;;5095930;28;20530;-65
2022/07/27 08:12:22;;;;;;;3.67;1.77;;;;;;;;;;5095101;28;20441;-64
2022/07/27 08:14:50;;;;;;;5.80;1.80;;;;;;;;;;5095261;28;20941;-65
2022/07/27 08:17:17;;;;;;;2.47;1.90;;;;;;;;;;5094955;28;20467;-65
2022/07/27 08:19:45;;;;;;;6.07;2.07;;;;;;;;;;5095283;28;20982;-65
2022/07/27 08:22:12;;;;;;;4.70;1.73;;;;;;;;;;5095434;28;20478;-65
2022/07/27 08:24:39;;;;;;;3.90;1.80;;;;;;;;;;5095269;28;20523;-64
2022/07/27 08:27:06;;;;;;;2.90;1.50;;;;;;;;;;5095092;28;20454;-64
2022/07/27 08:29:33;;;;;;;2.23;1.90;;;;;;;;;;5094850;28;20443;-65
2022/07/27 08:32:02;;;;;;;6.17;2.20;;;;;;;;;;5095307;28;20478;-65
2022/07/27 08:34:29;;;;;;;3.27;2.00;;;;;;;;;;5094823;28;20951;-65
2022/07/27 08:36:57;;;;;;;3.33;1.73;;;;;;;;;;5094881;28;20504;-64
2022/07/27 08:39:24;;;;;;;5.30;1.77;;;;;;;;;;5095587;28;20826;-64
2022/07/27 08:41:53;;;;;;;7.30;2.10;;;;;;;;;;5094728;28;20527;-65
2022/07/27 08:44:23;;;;;;;6.03;2.10;;;;;;;;;;5094923;28;20494;-64
2022/07/27 08:46:51;;;;;;;2.10;1.90;;;;;;;;;;5094947;28;20522;-65
2022/07/27 08:49:20;;;;;;;5.37;1.37;;;;;;;;;;5095322;28;20446;-64
2022/07/27 08:51:47;;;;;;;5.90;1.60;;;;;;;;;;5093869;28;20471;-64
2022/07/27 08:54:14;;;;;;;4.47;2.00;;;;;;;;;;5094721;28;20501;-64
2022/07/27 08:56:42;;;;;;;17.73;2.20;;;;;;;;;;5094394;28;20454;-64
2022/07/27 08:59:10;;;;;;;4.40;1.70;;;;;;;;;;5094760;28;20433;-64
2022/07/27 09:01:37;;;;;;;3.10;1.40;;;;;;;;;;5094732;28;20437;-64
2022/07/27 09:04:04;;;;;;;3.97;2.13;;;;;;;;;;5094324;28;20976;-65
2022/07/27 09:06:43;;;;;;;2.37;1.80;;;;;;;;;;5094239;28;20448;-65
2022/07/27 09:09:11;;;;;;;3.13;1.40;;;;;;;;;;5094320;28;20444;-65
2022/07/27 09:11:38;;;;;;;5.77;1.63;;;;;;;;;;5094486;28;20441;-65
2022/07/27 09:14:06;;;;;;;1.73;1.43;;;;;;;;;;5094081;28;20456;-64
2022/07/27 09:16:34;;;;;;;3.23;1.37;;;;;;;;;;5094114;28;20469;-64
2022/07/27 09:19:02;;;;;;;5.70;1.70;;;;;;;;;;5094703;28;20861;-64
2022/07/27 09:21:30;;;;;;;5.63;1.87;;;;;;;;;;5094563;28;20539;-64
2022/07/27 09:24:07;;;;;;;4.00;1.67;;;;;;;;;;5093789;28;20494;-64
2022/07/27 09:26:35;;;;;;;3.83;1.70;;;;;;;;;;5094421;28;20487;-64
2022/07/27 09:29:03;;;;;;;6.20;2.90;;;;;;;;;;5094106;28;20435;-64
2022/07/27 09:31:31;;;;;;;3.53;2.50;;;;;;;;;;5093759;28;20476;-64
2022/07/27 09:33:59;;;;;;;2.80;1.47;;;;;;;;;;5093857;28;20536;-65
2022/07/27 09:36:28;;;;;;;2.30;1.53;;;;;;;;;;5094059;28;20528;-64
2022/07/27 09:38:57;;;;;;;2.70;1.43;;;;;;;;;;5093703;28;20531;-64
2022/07/27 09:41:26;;;;;;;3.57;2.10;;;;;;;;;;5094214;28;20452;-64
2022/07/27 09:43:55;;;;;;;4.53;2.20;;;;;;;;;;5093956;28;20522;-64
2022/07/27 09:46:31;;;;;;;4.03;2.27;;;;;;;;;;5093832;28;20536;-65
2022/07/27 09:48:59;;;;;;;6.03;2.07;;;;;;;;;;5093921;28;20531;-64
2022/07/27 09:51:26;;;;;;;3.57;1.70;;;;;;;;;;5093488;28;20441;-64
2022/07/27 09:53:54;;;;;;;2.60;1.63;;;;;;;;;;5093876;28;20531;-64
2022/07/27 09:56:27;;;;;;;3.10;1.97;;;;;;;;;;5093680;28;20591;-65
2022/07/27 09:58:55;;;;;;;8.70;2.50;;;;;;;;;;5094331;28;20513;-64
2022/07/27 10:01:23;;;;;;;3.17;1.90;;;;;;;;;;5093704;28;20445;-64
2022/07/27 10:03:51;;;;;;;3.47;1.47;;;;;;;;;;5093134;28;21045;-64
2022/07/27 10:06:19;;;;;;;8.30;1.90;;;;;;;;;;5093543;28;20823;-65
2022/07/27 10:08:47;;;;;;;7.93;2.20;;;;;;;;;;5093979;28;20475;-65
2022/07/27 10:11:15;;;;;;;2.63;1.47;;;;;;;;;;5093754;28;20465;-65
2022/07/27 10:13:44;;;;;;;5.93;2.47;;;;;;;;;;5093596;28;20537;-64
2022/07/27 10:16:14;;;;;;;3.90;1.83;;;;;;;;;;5093192;28;21051;-65
2022/07/27 10:19:02;;;;;;;7.40;1.67;;;;;;;;;;5093349;28;20440;-64
2022/07/27 10:21:29;;;;;;;1.60;1.50;;;;;;;;;;5088741;28;20540;-65
2022/07/27 10:23:57;;;;;;;4.80;1.70;;;;;;;;;;5093543;28;20584;-65
2022/07/27 10:26:32;;;;;;;3.10;1.80;;;;;;;;;;5093117;28;20927;-65
2022/07/27 10:29:01;;;;;;;4.87;1.67;;;;;;;;;;5093429;28;20533;-64
2022/07/27 10:31:30;;;;;;;2.70;1.47;;;;;;;;;;5093387;28;20527;-64
2022/07/27 10:33:59;;;;;;;4.13;1.80;;;;;;;;;;5093054;28;20457;-64
2022/07/27 10:36:46;;;;;;;3.83;1.70;;;;;;;;;;5093538;28;20470;-64
2022/07/27 10:39:25;;;;;;;4.00;1.80;;;;;;;;;;5093419;28;20442;-65
2022/07/27 10:41:53;;;;;;;1.90;1.37;;;;;;;;;;5093355;28;20429;-65
2022/07/27 10:44:30;;;;;;;2.07;1.20;;;;;;;;;;5093486;28;20482;-65
2022/07/27 10:46:59;;;;;;;3.20;1.57;;;;;;;;;;5093388;28;20481;-64
2022/07/27 10:49:28;;;;;;;4.17;1.80;;;;;;;;;;5093361;28;20464;-64
2022/07/27 10:51:56;;;;;;;2.50;1.50;;;;;;;;;;5092890;28;20456;-64
2022/07/27 10:54:25;;;;;;;2.20;1.57;;;;;;;;;;5093420;28;20477;-65
2022/07/27 10:56:53;;;;;;;3.03;1.77;;;;;;;;;;5093217;28;20810;-65
2022/07/27 10:59:39;;;;;;;2.50;1.73;;;;;;;;;;5093211;28;20454;-65
2022/07/27 11:02:08;;;;;;;4.87;1.80;;;;;;;;;;5092800;28;20481;-64
2022/07/27 11:04:43;;;;;;;2.27;1.60;;;;;;;;;;5093132;28;20834;-65
2022/07/27 11:07:10;;;;;;;3.80;1.93;;;;;;;;;;5093098;28;20516;-65
2022/07/27 11:09:38;;;;;;;3.80;2.20;;;;;;;;;;5093601;28;20529;-64
2022/07/27 11:12:05;;;;;;;2.53;1.43;;;;;;;;;;5093283;28;20533;-65
2022/07/27 11:14:43;;;;;;;2.83;1.53;;;;;;;;;;5093774;28;20486;-64
2022/07/27 11:17:12;;;;;;;3.10;1.53;;;;;;;;;;5096891;28;20483;-65
2022/07/27 11:19:40;;;;;;;3.07;1.80;;;;;;;;;;5097536;28;20445;-65
2022/07/27 11:22:07;;;;;;;4.73;1.63;;;;;;;;;;5096560;28;20441;-65
2022/07/27 11:24:35;;;;;;;5.37;2.00;;;;;;;;;;5096394;28;20478;-65
2022/07/27 11:27:02;;;;;;;2.33;1.60;;;;;;;;;;5096801;28;20446;-65
2022/07/27 11:29:33;;;;;;;2.40;1.47;;;;;;;;;;5096677;28;20468;-64
2022/07/27 11:32:01;;;;;;;4.73;2.43;;;;;;;;;;5096173;28;20436;-64
2022/07/27 11:34:30;;;;;;;1.30;1.20;;;;;;;;;;5096441;28;20848;-65
2022/07/27 11:37:00;;;;;;;1.70;1.60;;;;;;;;;;5096290;28;20438;-66
2022/07/27 11:39:28;;;;;;;1.93;1.40;;;;;;;;;;5096786;28;20433;-64
2022/07/27 11:41:56;;;;;;;2.60;1.77;;;;;;;;;;5095880;28;20450;-64
2022/07/27 11:44:23;;;;;;;3.10;1.77;;;;;;;;;;5095880;28;20485;-65
2022/07/27 11:46:52;;;;;;;5.43;1.97;;;;;;;;;;5095810;28;20952;-65
2022/07/27 11:49:25;;;;;;;3.70;1.80;;;;;;;;;;5096191;28;20518;-64
2022/07/27 11:51:54;;;;;;;3.13;1.77;;;;;;;;;;5096959;28;20522;-65
2022/07/27 11:54:23;;;;;;;5.90;1.80;;;;;;;;;;5095919;28;20922;-64
2022/07/27 11:56:52;;;;;;;3.40;1.63;;;;;;;;;;5095976;28;20450;-64
2022/07/27 11:59:20;;;;;;;2.00;1.80;;;;;;;;;;5095536;28;20532;-65
2022/07/27 12:01:49;;;;;;;8.53;1.70;;;;;;;;;;5095601;28;20531;-64
2022/07/27 12:04:18;;;;;;;3.87;1.60;;;;;;;;;;5095668;28;20484;-65
2022/07/27 12:06:46;;;;;;;4.37;1.90;;;;;;;;;;5095738;28;20872;-65
2022/07/27 12:09:16;;;;;;;2.90;2.53;;;;;;;;;;5095678;28;20928;-65
2022/07/27 12:11:52;;;;;;;4.47;1.60;;;;;;;;;;5095348;28;20963;-65
2022/07/27 12:14:20;;;;;;;3.23;1.83;;;;;;;;;;5095696;28;20429;-65
2022/07/27 12:16:48;;;;;;;4.77;1.73;;;;;;;;;;5095675;28;20482;-65
2022/07/27 12:19:22;;;;;;;4.10;1.73;;;;;;;;;;5095160;28;20500;-63
2022/07/27 12:21:52;;;;;;;5.50;2.37;;;;;;;;;;5095314;28;20436;-64
2022/07/27 12:24:31;;;;;;;4.10;1.80;;;;;;;;;;5095377;28;20641;-64
2022/07/27 12:27:03;;;;;;;4.47;1.90;;;;;;;;;;5095528;28;20434;-64
2022/07/27 12:29:30;;;;;;;5.40;1.60;;;;;;;;;;5095272;28;20443;-65
2022/07/27 12:32:01;;;;;;;6.67;2.47;;;;;;;;;;5094994;28;20930;-65
2022/07/27 12:34:32;;;;;;;4.40;2.17;;;;;;;;;;5094989;28;20473;-64
2022/07/27 12:37:00;;;;;;;7.00;2.50;;;;;;;;;;5094972;28;20446;-64
2022/07/27 12:39:29;;;;;;;4.80;2.10;;;;;;;;;;5094758;28;20963;-64
2022/07/27 12:42:05;;;;;;;9.63;2.23;;;;;;;;;;5095158;28;20546;-64
2022/07/27 12:44:33;;;;;;;4.30;1.97;;;;;;;;;;5095060;28;20524;-65
2022/07/27 12:47:01;;;;;;;3.37;1.73;;;;;;;;;;5094765;28;20454;-64
2022/07/27 12:49:33;;;;;;;12.17;2.97;;;;;;;;;;5095064;28;20450;-65
2022/07/27 12:52:05;;;;;;;4.43;1.67;;;;;;;;;;5095126;28;20431;-65
2022/07/27 12:54:34;;;;;;;4.97;3.97;;;;;;;;;;5080411;28;20623;-68
2022/07/27 12:57:01;;;;;;;8.83;3.20;;;;;;;;;;5053527;28;20510;-64
2022/07/27 12:59:28;;;;;;;5.83;2.10;;;;;;;;;;5053916;28;20514;-64
2022/07/27 13:01:56;;;;;;;6.07;2.03;;;;;;;;;;5054124;28;20451;-64
2022/07/27 13:04:23;;;;;;;5.50;2.30;;;;;;;;;;5054452;28;20587;-64
2022/07/27 13:06:50;;;;;;;5.47;1.90;;;;;;;;;;5054457;28;20590;-64
2022/07/27 13:09:17;;;;;;;2.47;1.83;;;;;;;;;;5054223;28;20441;-64
2022/07/27 13:11:46;;;;;;;4.53;1.70;;;;;;;;;;5053976;28;20444;-64
2022/07/27 13:14:13;;;;;;;4.10;1.87;;;;;;;;;;5054214;28;20531;-64
2022/07/27 13:16:40;;;;;;;4.17;1.97;;;;;;;;;;5071455;28;20473;-64
2022/07/27 13:19:07;;;;;;;5.00;2.07;;;;;;;;;;5093530;28;20436;-65
2022/07/27 13:21:35;;;;;;;5.30;2.33;;;;;;;;;;5093972;28;20432;-64
2022/07/27 13:24:02;;;;;;;2.50;1.53;;;;;;;;;;5093261;28;20450;-65
2022/07/27 13:26:29;;;;;;;6.07;1.70;;;;;;;;;;5093592;28;20442;-65
2022/07/27 13:28:58;;;;;;;4.43;1.83;;;;;;;;;;5093931;28;20524;-65
2022/07/27 13:31:25;;;;;;;2.67;1.73;;;;;;;;;;5093891;28;20437;-66
2022/07/27 13:33:52;;;;;;;3.53;1.70;;;;;;;;;;5093648;28;20459;-65
2022/07/27 13:36:20;;;;;;;6.73;2.50;;;;;;;;;;5093648;28;20529;-64
2022/07/27 13:38:47;;;;;;;1.63;1.27;;;;;;;;;;5093564;28;20445;-64
2022/07/27 13:41:14;;;;;;;2.17;1.80;;;;;;;;;;5093886;28;20446;-64
2022/07/27 13:43:41;;;;;;;2.60;1.70;;;;;;;;;;5093472;28;20446;-64
2022/07/27 13:46:10;;;;;;;4.60;1.60;;;;;;;;;;5093722;28;20550;-64
2022/07/27 13:48:37;;;;;;;3.23;1.70;;;;;;;;;;5093316;28;20482;-64
2022/07/27 13:51:04;;;;;;;2.53;1.67;;;;;;;;;;5093307;28;20444;-64
2022/07/27 13:53:32;;;;;;;4.10;1.70;;;;;;;;;;5093291;28;20544;-65
2022/07/27 13:56:00;;;;;;;4.27;1.40;;;;;;;;;;5093577;28;20532;-63
2022/07/27 13:58:27;;;;;;;3.07;1.40;;;;;;;;;;5093317;28;20955;-64
2022/07/27 14:00:54;;;;;;;3.57;1.93;;;;;;;;;;5093568;28;20483;-65
2022/07/27 14:03:23;;;;;;;6.33;2.33;;;;;;;;;;5093483;28;20877;-64
2022/07/27 14:05:50;;;;;;;3.50;1.40;;;;;;;;;;5093016;28;20972;-64
2022/07/27 14:08:19;;;;;;;1.77;1.57;;;;;;;;;;5093120;28;20928;-64
2022/07/27 14:10:47;;;;;;;2.53;1.50;;;;;;;;;;5093040;28;20435;-64
2022/07/27 14:13:15;;;;;;;2.43;1.53;;;;;;;;;;5093056;28;20535;-65
2022/07/27 14:15:43;;;;;;;3.43;1.40;;;;;;;;;;5092988;28;20453;-65
2022/07/27 14:18:10;;;;;;;1.80;1.50;;;;;;;;;;5093672;28;20435;-64
2022/07/27 14:20:39;;;;;;;2.90;1.70;;;;;;;;;;5092926;28;20985;-64
2022/07/27 14:23:06;;;;;;;3.03;1.40;;;;;;;;;;5093025;28;20530;-65
2022/07/27 14:25:34;;;;;;;1.63;1.23;;;;;;;;;;5093186;28;20849;-65
2022/07/27 14:28:01;;;;;;;2.80;1.70;;;;;;;;;;5093921;28;20440;-64
2022/07/27 14:30:29;;;;;;;3.77;1.60;;;;;;;;;;5093466;28;20439;-65
2022/07/27 14:32:57;;;;;;;5.00;1.63;;;;;;;;;;5093092;28;20479;-64
2022/07/27 14:35:24;;;;;;;2.50;1.13;;;;;;;;;;5093528;28;20447;-65
2022/07/27 14:37:52;;;;;;;1.90;1.40;;;;;;;;;;5093916;28;20789;-65
2022/07/27 14:40:20;;;;;;;2.20;1.50;;;;;;;;;;5092942;28;20528;-64
2022/07/27 14:42:47;;;;;;;1.50;1.10;;;;;;;;;;5093674;28;20446;-64
2022/07/27 14:45:14;;;;;;;3.33;1.60;;;;;;;;;;5092792;28;20475;-64
2022/07/27 14:47:41;;;;;;;1.30;1.20;;;;;;;;;;5093427;28;20442;-64
2022/07/27 14:50:09;;;;;;;1.43;1.10;;;;;;;;;;5094552;28;20448;-64
2022/07/27 14:52:36;;;;;;;3.53;1.40;;;;;;;;;;5097245;28;20471;-65